createdAt,value
2022-08-20T00:00:21.255Z,101117.06
2022-08-20T00:03:28.171Z,101110.88
2022-08-20T00:06:31.329Z,101117.06
2022-08-20T00:09:36.503Z,101103.66
2022-08-20T00:12:46.481Z,101104.63
2022-08-20T00:15:50.439Z,101105.50
2022-08-20T00:18:53.866Z,101102.81
2022-08-20T00:21:58.327Z,101103.75
2022-08-20T00:25:03.662Z,101105.56
2022-08-20T00:28:07.523Z,101107.41
2022-08-20T00:31:12.986Z,101102.06
2022-08-20T00:34:16.135Z,101104.72
2022-08-20T00:37:19.333Z,101101.19
2022-08-20T00:40:27.958Z,101106.66
2022-08-20T00:43:35.748Z,101096.88
2022-08-20T00:46:40.935Z,101097.91
2022-08-20T00:49:45.504Z,101097.03
2022-08-20T00:52:51.978Z,101093.53
2022-08-20T00:55:56.994Z,101089.97
2022-08-20T00:59:00.770Z,101101.56
2022-08-20T01:02:07.617Z,101099.84
2022-08-20T01:05:11.695Z,101104.34
2022-08-20T01:08:16.858Z,101091.03
2022-08-20T01:11:23.132Z,101104.44
2022-08-20T01:14:31.827Z,101106.25
2022-08-20T01:17:37.794Z,101101.75
2022-08-20T01:20:44.363Z,101100.88
2022-08-20T01:23:55.390Z,101108.94
2022-08-20T01:27:04.051Z,101106.25
2022-08-20T01:30:09.163Z,101100.88
2022-08-20T01:33:12.436Z,101106.25
2022-08-20T01:36:17.201Z,101104.53
2022-08-20T01:39:25.922Z,101106.25
2022-08-20T01:42:34.818Z,101107.22
2022-08-20T01:45:40.092Z,101115.28
2022-08-20T01:48:44.218Z,101117.84
2022-08-20T01:51:47.386Z,101122.34
2022-08-20T01:54:52.510Z,101127.72
2022-08-20T01:57:58.040Z,101126.00
2022-08-20T02:01:01.330Z,101127.72
2022-08-20T02:04:06.786Z,101132.31
2022-08-20T02:07:21.384Z,101133.28
2022-08-20T02:10:24.507Z,101135.00
2022-08-20T02:13:29.154Z,101138.66
2022-08-20T02:16:37.723Z,101141.50
2022-08-20T02:19:45.059Z,101149.56
2022-08-20T02:22:51.382Z,101138.94
2022-08-20T02:25:54.414Z,101137.13
2022-08-20T02:29:01.055Z,101139.81
2022-08-20T02:32:24.519Z,101143.31
2022-08-20T02:35:29.686Z,101145.94
2022-08-20T02:38:34.855Z,101145.94
2022-08-20T02:41:39.123Z,101142.28
2022-08-20T02:44:43.597Z,101144.97
2022-08-20T02:47:47.663Z,101144.97
2022-08-20T02:50:53.985Z,101144.97
2022-08-20T02:53:57.046Z,101147.66
2022-08-20T02:57:00.082Z,101140.47
2022-08-20T03:00:06.591Z,101147.66
2022-08-20T03:03:11.323Z,101140.56
2022-08-20T03:06:14.774Z,101135.22
2022-08-20T03:09:17.837Z,101134.22
2022-08-20T03:12:20.834Z,101133.38
2022-08-20T03:15:25.282Z,101137.88
2022-08-20T03:18:32.072Z,101127.22
2022-08-20T03:21:35.281Z,101137.97
2022-08-20T03:24:38.761Z,101131.00
2022-08-20T03:27:41.875Z,101129.16
2022-08-20T03:30:47.244Z,101131.94
2022-08-20T03:33:53.299Z,101131.94
2022-08-20T03:36:56.805Z,101129.34
2022-08-20T03:40:00.335Z,101133.84
2022-08-20T03:43:04.395Z,101132.97
2022-08-20T03:46:22.124Z,101132.16
2022-08-20T03:49:26.766Z,101132.97
2022-08-20T03:52:30.197Z,101130.41
2022-08-20T03:55:33.822Z,101121.50
2022-08-20T03:58:36.942Z,101129.63
2022-08-20T04:01:46.282Z,101129.63
2022-08-20T04:04:49.933Z,101126.97
2022-08-20T04:07:53.305Z,101128.78
2022-08-20T04:10:59.731Z,101133.19
2022-08-20T04:14:02.746Z,101136.72
2022-08-20T04:17:11.698Z,101141.13
2022-08-20T04:20:19.187Z,101142.88
2022-08-20T04:23:23.386Z,101142.06
2022-08-20T04:26:26.574Z,101140.19
2022-08-20T04:29:32.114Z,101134.81
2022-08-20T04:32:37.246Z,101130.41
2022-08-20T04:35:41.349Z,101134.03
2022-08-20T04:38:50.467Z,101138.44
2022-08-20T04:41:54.058Z,101144.75
2022-08-20T04:44:57.058Z,101138.63
2022-08-20T04:48:05.429Z,101145.84
2022-08-20T04:51:10.309Z,101147.66
2022-08-20T04:54:14.604Z,101143.22
2022-08-20T04:57:17.609Z,101138.84
2022-08-20T05:00:20.675Z,101139.78
2022-08-20T05:03:25.870Z,101138.06
2022-08-20T05:06:31.724Z,101139.97
2022-08-20T05:09:43.823Z,101139.97
2022-08-20T05:12:56.594Z,101136.53
2022-08-20T05:16:01.351Z,101141.91
2022-08-20T05:19:06.763Z,101153.47
2022-08-20T05:22:09.998Z,101153.56
2022-08-20T05:25:13.472Z,101162.38
2022-08-20T05:28:19.925Z,101161.63
2022-08-20T05:31:22.863Z,101164.41
2022-08-20T05:34:35.621Z,101172.34
2022-08-20T05:37:41.005Z,101180.38
2022-08-20T05:40:44.569Z,101179.50
2022-08-20T05:43:47.648Z,101176.00
2022-08-20T05:46:54.646Z,101178.69
2022-08-20T05:49:59.184Z,101181.38
2022-08-20T05:53:02.366Z,101185.16
2022-08-20T05:56:05.413Z,101195.88
2022-08-20T05:59:09.696Z,101196.72
2022-08-20T06:02:26.518Z,101198.56
2022-08-20T06:05:30.850Z,101196.72
2022-08-20T06:08:33.941Z,101195.88
2022-08-20T06:11:37.596Z,101190.50
2022-08-20T06:14:40.690Z,101189.72
2022-08-20T06:17:43.681Z,101184.44
2022-08-20T06:20:48.071Z,101188.94
2022-08-20T06:23:56.950Z,101183.50
2022-08-20T06:27:04.929Z,101183.41
2022-08-20T06:30:10.339Z,101196.81
2022-08-20T06:33:13.562Z,101198.63
2022-08-20T06:36:18.910Z,101199.66
2022-08-20T06:39:22.703Z,101197.97
2022-08-20T06:42:25.718Z,101210.59
2022-08-20T06:45:31.349Z,101217.66
2022-08-20T06:48:35.426Z,101212.31
2022-08-20T06:51:41.301Z,101213.06
2022-08-20T06:54:44.525Z,101214.81
2022-08-20T06:57:48.351Z,101202.28
2022-08-20T07:00:51.507Z,101207.53
2022-08-20T07:03:56.226Z,101216.34
2022-08-20T07:07:00.862Z,101208.31
2022-08-20T07:10:05.974Z,101219.03
2022-08-20T07:13:09.281Z,101223.47
2022-08-20T07:16:13.449Z,101214.53
2022-08-20T07:19:16.702Z,101219.91
2022-08-20T07:22:21.151Z,101231.50
2022-08-20T07:25:24.956Z,101234.25
2022-08-20T07:28:29.690Z,101229.00
2022-08-20T07:31:50.337Z,101234.47
2022-08-20T07:34:53.444Z,101237.31
2022-08-20T07:37:57.870Z,101241.91
2022-08-20T07:41:03.597Z,101243.81
2022-08-20T07:44:06.663Z,101242.94
2022-08-20T07:47:09.709Z,101241.22
2022-08-20T07:50:15.357Z,101238.53
2022-08-20T07:53:19.803Z,101245.72
2022-08-20T07:56:24.759Z,101244.84
2022-08-20T07:59:27.781Z,101249.28
2022-08-20T08:02:30.859Z,101253.66
2022-08-20T08:05:35.699Z,101257.13
2022-08-20T08:08:41.401Z,101262.47
2022-08-20T08:11:49.997Z,101255.31
2022-08-20T08:14:54.449Z,101252.63
2022-08-20T08:18:01.301Z,101259.72
2022-08-20T08:21:06.025Z,101259.72
2022-08-20T08:24:12.696Z,101255.19
2022-08-20T08:27:18.602Z,101268.63
2022-08-20T08:30:21.654Z,101265.94
2022-08-20T08:33:30.821Z,101264.13
2022-08-20T08:36:33.842Z,101267.66
2022-08-20T08:39:38.688Z,101270.34
2022-08-20T08:42:45.782Z,101264.13
2022-08-20T08:45:57.379Z,101273.03
2022-08-20T08:49:02.835Z,101271.28
2022-08-20T08:52:12.331Z,101272.16
2022-08-20T08:55:21.583Z,101273.97
2022-08-20T08:58:24.587Z,101277.53
2022-08-20T09:01:54.652Z,101263.25
2022-08-20T09:04:56.014Z,101272.16
2022-08-20T09:08:00.090Z,101265.94
2022-08-20T09:11:08.242Z,101279.44
2022-08-20T09:14:11.491Z,101282.00
2022-08-20T09:17:15.292Z,101285.66
2022-08-20T09:20:19.383Z,101284.78
2022-08-20T09:23:22.365Z,101283.94
2022-08-20T09:26:29.092Z,101274.84
2022-08-20T09:29:32.726Z,101281.94
2022-08-20T09:32:35.961Z,101278.41
2022-08-20T09:35:40.334Z,101273.97
2022-08-20T09:38:43.418Z,101278.41
2022-08-20T09:41:47.797Z,101282.88
2022-08-20T09:44:51.563Z,101285.66
2022-08-20T09:47:55.441Z,101289.22
2022-08-20T09:51:13.649Z,101285.66
2022-08-20T09:54:16.758Z,101284.78
2022-08-20T09:57:21.203Z,101277.63
2022-08-20T10:00:24.237Z,101282.00
2022-08-20T10:03:27.363Z,101280.22
2022-08-20T10:06:32.511Z,101279.28
2022-08-20T10:09:40.006Z,101278.41
2022-08-20T10:12:45.974Z,101285.47
2022-08-20T10:15:49.170Z,101279.28
2022-08-20T10:18:52.906Z,101287.22
2022-08-20T10:21:56.121Z,101290.84
2022-08-20T10:24:59.298Z,101288.09
2022-08-20T10:28:04.167Z,101292.56
2022-08-20T10:31:08.016Z,101291.69
2022-08-20T10:34:11.205Z,101293.50
2022-08-20T10:37:16.866Z,101295.34
2022-08-20T10:40:20.038Z,101290.00
2022-08-20T10:43:24.526Z,101289.13
2022-08-20T10:46:27.805Z,101289.13
2022-08-20T10:49:34.962Z,101296.28
2022-08-20T10:52:37.988Z,101289.13
2022-08-20T10:55:41.258Z,101285.56
2022-08-20T10:58:45.737Z,101294.47
2022-08-20T11:01:48.722Z,101298.09
2022-08-20T11:04:52.701Z,101295.41
2022-08-20T11:07:56.862Z,101296.28
2022-08-20T11:11:00.036Z,101298.19
2022-08-20T11:14:04.389Z,101300.97
2022-08-20T11:17:09.555Z,101307.28
2022-08-20T11:20:14.861Z,101312.66
2022-08-20T11:23:18.120Z,101309.97
2022-08-20T11:26:24.336Z,101316.28
2022-08-20T11:29:33.430Z,101315.31
2022-08-20T11:32:37.046Z,101310.94
2022-08-20T11:35:49.484Z,101313.69
2022-08-20T11:38:53.251Z,101323.47
2022-08-20T11:41:56.358Z,101311.09
2022-08-20T11:45:00.766Z,101314.66
2022-08-20T11:48:04.082Z,101311.97
2022-08-20T11:51:07.561Z,101305.75
2022-08-20T11:54:10.609Z,101307.66
2022-08-20T11:57:14.871Z,101315.78
2022-08-20T12:00:29.274Z,101320.28
2022-08-20T12:03:36.006Z,101323.91
2022-08-20T12:06:39.015Z,101321.31
2022-08-20T12:09:50.970Z,101325.81
2022-08-20T12:12:54.503Z,101328.41
2022-08-20T12:15:59.252Z,101324.75
2022-08-20T12:19:02.329Z,101323.81
2022-08-20T12:22:23.166Z,101323.81
2022-08-20T12:25:28.206Z,101320.09
2022-08-20T12:28:31.642Z,101318.25
2022-08-20T12:31:36.115Z,101324.50
2022-08-20T12:34:41.658Z,101326.31
2022-08-20T12:37:45.833Z,101321.81
2022-08-20T12:40:50.459Z,101328.06
2022-08-20T12:43:53.477Z,101325.47
2022-08-20T12:47:08.936Z,101314.75
2022-08-20T12:50:14.246Z,101322.84
2022-08-20T12:53:17.533Z,101327.38
2022-08-20T12:56:20.641Z,101329.97
2022-08-20T12:59:26.116Z,101326.41
2022-08-20T13:02:30.649Z,101340.69
2022-08-20T13:05:35.641Z,101329.09
2022-08-20T13:08:38.613Z,101341.56
2022-08-20T13:11:42.589Z,101337.03
2022-08-20T13:14:45.795Z,101322.78
2022-08-20T13:17:53.406Z,101321.81
2022-08-20T13:20:57.013Z,101331.59
2022-08-20T13:23:59.976Z,101329.78
2022-08-20T13:27:08.686Z,101329.69
2022-08-20T13:30:15.641Z,101338.69
2022-08-20T13:33:20.038Z,101336.00
2022-08-20T13:36:23.302Z,101330.63
2022-08-20T13:39:26.423Z,101332.53
2022-08-20T13:42:29.631Z,101329.97
2022-08-20T13:45:32.650Z,101331.69
2022-08-20T13:48:37.151Z,101334.28
2022-08-20T13:51:40.223Z,101334.19
2022-08-20T13:54:43.282Z,101333.31
2022-08-20T13:57:46.478Z,101334.28
2022-08-20T14:00:50.385Z,101333.41
2022-08-20T14:03:54.905Z,101336.97
2022-08-20T14:06:59.326Z,101339.72
2022-08-20T14:10:07.140Z,101338.78
2022-08-20T14:13:15.094Z,101338.78
2022-08-20T14:16:27.228Z,101334.28
2022-08-20T14:19:32.519Z,101328.81
2022-08-20T14:22:36.751Z,101325.28
2022-08-20T14:25:40.459Z,101323.38
2022-08-20T14:28:43.478Z,101318.00
2022-08-20T14:31:46.505Z,101330.47
2022-08-20T14:34:50.903Z,101334.03
2022-08-20T14:37:55.481Z,101333.94
2022-08-20T14:40:58.642Z,101339.28
2022-08-20T14:44:01.741Z,101340.06
2022-08-20T14:47:16.933Z,101335.63
2022-08-20T14:50:25.065Z,101332.97
2022-08-20T14:53:28.237Z,101338.31
2022-08-20T14:56:31.315Z,101335.63
2022-08-20T14:59:34.526Z,101341.00
2022-08-20T15:02:38.907Z,101342.75
2022-08-20T15:05:44.068Z,101346.31
2022-08-20T15:08:47.737Z,101338.16
2022-08-20T15:11:50.879Z,101345.22
2022-08-20T15:14:54.314Z,101340.69
2022-08-20T15:18:00.992Z,101336.25
2022-08-20T15:21:05.422Z,101340.69
2022-08-20T15:24:18.919Z,101335.31
2022-08-20T15:27:25.990Z,101342.38
2022-08-20T15:30:30.855Z,101343.25
2022-08-20T15:33:33.833Z,101337.91
2022-08-20T15:36:38.210Z,101339.72
2022-08-20T15:39:45.539Z,101333.41
2022-08-20T15:42:48.726Z,101340.59
2022-08-20T15:45:51.743Z,101336.09
2022-08-20T15:48:54.842Z,101342.38
2022-08-20T15:51:59.817Z,101341.50
2022-08-20T15:55:03.722Z,101347.75
2022-08-20T15:58:15.846Z,101348.63
2022-08-20T16:01:26.061Z,101349.56
2022-08-20T16:04:52.868Z,101362.13
2022-08-20T16:08:06.674Z,101367.50
2022-08-20T16:11:23.149Z,101368.44
2022-08-20T16:14:29.210Z,101369.38
2022-08-20T16:17:38.468Z,101377.50
2022-08-20T16:20:44.198Z,101380.28
2022-08-20T16:23:52.538Z,101383.91
2022-08-20T16:27:13.636Z,101389.28
2022-08-20T16:30:21.973Z,101384.88
2022-08-20T16:33:31.526Z,101391.94
2022-08-20T16:36:39.134Z,101395.50
2022-08-20T16:39:54.269Z,101392.72
2022-08-20T16:43:00.758Z,101390.03
2022-08-20T16:46:07.418Z,101394.47
2022-08-20T16:49:14.395Z,101398.88
2022-08-20T16:52:17.568Z,101392.56
2022-08-20T16:55:25.121Z,101399.66
2022-08-20T16:58:28.562Z,101394.31
2022-08-20T17:01:31.767Z,101399.66
2022-08-20T17:04:36.255Z,101405.81
2022-08-20T17:07:46.298Z,101403.97
2022-08-20T17:11:01.422Z,101398.59
2022-08-20T17:14:09.031Z,101400.38
2022-08-20T17:17:20.519Z,101402.09
2022-08-20T17:20:28.048Z,101406.53
2022-08-20T17:23:49.203Z,101411.00
2022-08-20T17:27:02.682Z,101408.34
2022-08-20T17:30:11.641Z,101413.59
2022-08-20T17:33:30.640Z,101413.69
2022-08-20T17:36:34.386Z,101414.56
2022-08-20T17:39:47.104Z,101408.34
2022-08-20T17:42:54.016Z,101413.69
2022-08-20T17:45:59.234Z,101413.69
2022-08-20T17:49:09.145Z,101412.81
2022-08-20T17:52:17.166Z,101411.97
2022-08-20T17:55:21.210Z,101406.63
2022-08-20T17:58:33.295Z,101409.31
2022-08-20T18:01:36.454Z,101413.69
2022-08-20T18:04:39.663Z,101415.50
2022-08-20T18:07:57.253Z,101419.06
2022-08-20T18:11:07.800Z,101411.00
2022-08-20T18:14:35.202Z,101411.88
2022-08-20T18:18:07.479Z,101421.66
2022-08-20T18:21:27.013Z,101422.53
2022-08-20T18:24:37.716Z,101432.38
2022-08-20T18:27:45.413Z,101428.91
2022-08-20T18:30:52.724Z,101420.03
2022-08-20T18:33:55.901Z,101430.75
2022-08-20T18:37:01.542Z,101428.91
2022-08-20T18:40:17.276Z,101434.28
2022-08-20T18:43:30.561Z,101432.47
2022-08-20T18:46:35.934Z,101441.38
2022-08-20T18:49:41.106Z,101445.88
2022-08-20T18:52:46.410Z,101451.25
2022-08-20T18:56:02.178Z,101453.81
2022-08-20T18:59:10.661Z,101446.84
2022-08-20T19:02:24.134Z,101445.88
2022-08-20T19:05:32.404Z,101444.16
2022-08-20T19:08:54.333Z,101446.84
2022-08-20T19:12:16.101Z,101445.88
2022-08-20T19:15:21.120Z,101446.75
2022-08-20T19:18:31.952Z,101449.53
2022-08-20T19:21:36.424Z,101443.19
2022-08-20T19:24:44.176Z,101451.25
2022-08-20T19:27:47.334Z,101443.28
2022-08-20T19:30:50.714Z,101455.72
2022-08-20T19:34:18.968Z,101453.06
2022-08-20T19:37:35.330Z,101457.47
2022-08-20T19:40:46.169Z,101447.69
2022-08-20T19:43:49.975Z,101457.47
2022-08-20T19:46:53.583Z,101459.19
2022-08-20T19:50:14.611Z,101462.75
2022-08-20T19:53:29.982Z,101454.69
2022-08-20T19:56:41.290Z,101453.91
2022-08-20T19:59:53.355Z,101457.47
2022-08-20T20:02:56.784Z,101461.97
2022-08-20T20:06:03.739Z,101456.59
2022-08-20T20:09:22.151Z,101463.78
2022-08-20T20:12:25.851Z,101454.88
2022-08-20T20:15:28.925Z,101465.63
2022-08-20T20:18:37.164Z,101462.94
2022-08-20T20:21:44.246Z,101457.56
2022-08-20T20:24:49.958Z,101459.28
2022-08-20T20:27:55.956Z,101467.22
2022-08-20T20:31:07.360Z,101459.19
2022-08-20T20:34:14.463Z,101457.47
2022-08-20T20:37:49.600Z,101452.00
2022-08-20T20:40:56.477Z,101460.06
2022-08-20T20:44:02.700Z,101453.00
2022-08-20T20:47:09.373Z,101459.28
2022-08-20T20:50:13.314Z,101456.59
2022-08-20T20:53:35.085Z,101456.59
2022-08-20T20:57:03.003Z,101467.44
2022-08-20T21:00:08.750Z,101463.88
2022-08-20T21:03:11.705Z,101467.44
2022-08-20T21:06:14.986Z,101458.50
2022-08-20T21:09:19.750Z,101458.50
2022-08-20T21:12:22.863Z,101452.25
2022-08-20T21:15:27.225Z,101449.56
2022-08-20T21:18:31.810Z,101448.66
2022-08-20T21:21:35.085Z,101448.66
2022-08-20T21:24:39.511Z,101447.78
2022-08-20T21:27:46.646Z,101446.84
2022-08-20T21:30:51.559Z,101449.53
2022-08-20T21:34:01.899Z,101442.41
2022-08-20T21:37:04.977Z,101436.16
2022-08-20T21:40:11.274Z,101442.41
2022-08-20T21:43:14.445Z,101427.25
2022-08-20T21:46:18.297Z,101433.47
2022-08-20T21:49:30.831Z,101431.69
2022-08-20T21:52:34.292Z,101429.06
2022-08-20T21:55:40.710Z,101430.88
2022-08-20T21:58:45.326Z,101427.31
2022-08-20T22:01:48.785Z,101430.97
2022-08-20T22:04:51.761Z,101424.66
2022-08-20T22:07:57.054Z,101427.31
2022-08-20T22:11:02.744Z,101430.00
2022-08-20T22:14:08.282Z,101425.53
2022-08-20T22:17:11.367Z,101423.81
2022-08-20T22:20:14.407Z,101423.88
2022-08-20T22:23:17.534Z,101429.22
2022-08-20T22:26:22.494Z,101421.28
2022-08-20T22:29:30.594Z,101427.53
2022-08-20T22:32:51.621Z,101426.66
2022-08-20T22:35:57.657Z,101438.31
2022-08-20T22:39:01.468Z,101436.59
2022-08-20T22:42:06.631Z,101436.69
2022-08-20T22:45:14.516Z,101440.22
2022-08-20T22:48:20.169Z,101434.00
2022-08-20T22:51:28.173Z,101438.41
2022-08-20T22:54:31.473Z,101433.03
2022-08-20T22:57:35.844Z,101441.97
2022-08-20T23:00:39.720Z,101435.72
2022-08-20T23:03:42.786Z,101438.41
2022-08-20T23:06:46.078Z,101438.41
2022-08-20T23:09:49.456Z,101442.91
2022-08-20T23:12:53.916Z,101440.22
2022-08-20T23:15:57.305Z,101448.25
2022-08-20T23:19:00.957Z,101440.31
2022-08-20T23:22:04.070Z,101445.66
2022-08-20T23:25:09.653Z,101439.44
2022-08-20T23:28:14.141Z,101439.44
2022-08-20T23:31:17.351Z,101443.09
2022-08-20T23:34:20.513Z,101442.13
2022-08-20T23:37:23.601Z,101439.44
2022-08-20T23:40:28.665Z,101446.53
2022-08-20T23:43:33.270Z,101438.50
2022-08-20T23:46:37.838Z,101435.91
2022-08-20T23:49:40.870Z,101444.81
2022-08-20T23:52:44.297Z,101438.59
2022-08-20T23:55:47.342Z,101442.22
2022-08-20T23:58:51.762Z,101441.34
